sensor_id;sensor_type;location;lat;lon;timestamp;temperature;humidity
22319;DHT22;11327;52.334;9.506;2023-03-23T00:02:00;12.60;99.90
22319;DHT22;11327;52.334;9.506;2023-03-23T00:05:21;12.50;99.90
22319;DHT22;11327;52.334;9.506;2023-03-23T00:08:44;12.40;99.90
22319;DHT22;11327;52.334;9.506;2023-03-23T00:12:07;12.30;99.90
22319;DHT22;11327;52.334;9.506;2023-03-23T00:15:28;12.20;99.90
22319;DHT22;11327;52.334;9.506;2023-03-23T00:18:53;12.20;99.90
22319;DHT22;11327;52.334;9.506;2023-03-23T00:22:15;12.20;99.90
22319;DHT22;11327;52.334;9.506;2023-03-23T00:25:41;12.20;99.90
22319;DHT22;11327;52.334;9.506;2023-03-23T00:29:06;12.10;99.90
22319;DHT22;11327;52.334;9.506;2023-03-23T00:32:27;12.00;99.90
22319;DHT22;11327;52.334;9.506;2023-03-23T00:35:49;12.10;99.90
22319;DHT22;11327;52.334;9.506;2023-03-23T00:39:12;12.10;99.90
22319;DHT22;11327;52.334;9.506;2023-03-23T00:42:33;12.10;99.90
22319;DHT22;11327;52.334;9.506;2023-03-23T00:45:56;12.10;99.90
22319;DHT22;11327;52.334;9.506;2023-03-23T00:49:20;12.00;99.90
22319;DHT22;11327;52.334;9.506;2023-03-23T00:52:43;12.00;99.90
22319;DHT22;11327;52.334;9.506;2023-03-23T00:56:05;11.90;99.90
22319;DHT22;11327;52.334;9.506;2023-03-23T00:59:26;11.90;99.90
22319;DHT22;11327;52.334;9.506;2023-03-23T01:02:47;11.90;99.90
22319;DHT22;11327;52.334;9.506;2023-03-23T01:06:09;11.80;99.90
22319;DHT22;11327;52.334;9.506;2023-03-23T01:09:32;11.70;99.90
22319;DHT22;11327;52.334;9.506;2023-03-23T01:12:54;11.60;99.90
22319;DHT22;11327;52.334;9.506;2023-03-23T01:16:15;11.60;99.90
22319;DHT22;11327;52.334;9.506;2023-03-23T01:19:35;11.50;99.90
22319;DHT22;11327;52.334;9.506;2023-03-23T01:22:58;11.40;99.90
22319;DHT22;11327;52.334;9.506;2023-03-23T01:26:24;11.40;99.90
22319;DHT22;11327;52.334;9.506;2023-03-23T01:29:45;11.40;99.90
22319;DHT22;11327;52.334;9.506;2023-03-23T01:33:06;11.40;99.90
22319;DHT22;11327;52.334;9.506;2023-03-23T01:36:29;11.40;99.90
22319;DHT22;11327;52.334;9.506;2023-03-23T01:39:54;11.40;99.90
22319;DHT22;11327;52.334;9.506;2023-03-23T01:43:15;11.40;99.90
22319;DHT22;11327;52.334;9.506;2023-03-23T01:46:36;11.40;99.90
22319;DHT22;11327;52.334;9.506;2023-03-23T01:49:57;11.40;99.90
22319;DHT22;11327;52.334;9.506;2023-03-23T01:53:18;11.40;99.90
22319;DHT22;11327;52.334;9.506;2023-03-23T01:56:45;11.50;99.90
22319;DHT22;11327;52.334;9.506;2023-03-23T02:00:07;11.50;99.90
22319;DHT22;11327;52.334;9.506;2023-03-23T02:03:35;11.50;99.90
22319;DHT22;11327;52.334;9.506;2023-03-23T02:06:57;11.50;99.90
22319;DHT22;11327;52.334;9.506;2023-03-23T02:10:18;11.50;99.90
22319;DHT22;11327;52.334;9.506;2023-03-23T02:13:39;11.50;99.90
22319;DHT22;11327;52.334;9.506;2023-03-23T02:17:03;11.60;99.90
22319;DHT22;11327;52.334;9.506;2023-03-23T02:31:48;11.60;99.90
22319;DHT22;11327;52.334;9.506;2023-03-23T02:35:28;11.60;99.90
22319;DHT22;11327;52.334;9.506;2023-03-23T02:42:30;11.60;99.90
22319;DHT22;11327;52.334;9.506;2023-03-23T02:45:53;11.60;99.90
22319;DHT22;11327;52.334;9.506;2023-03-23T02:49:15;11.50;99.90
22319;DHT22;11327;52.334;9.506;2023-03-23T02:52:40;11.60;99.90
22319;DHT22;11327;52.334;9.506;2023-03-23T02:56:03;11.60;99.90
22319;DHT22;11327;52.334;9.506;2023-03-23T02:59:25;11.60;99.90
22319;DHT22;11327;52.334;9.506;2023-03-23T03:02:52;11.60;99.90
22319;DHT22;11327;52.334;9.506;2023-03-23T03:10:08;11.70;99.90
22319;DHT22;11327;52.334;9.506;2023-03-23T03:17:06;11.60;99.90
22319;DHT22;11327;52.334;9.506;2023-03-23T03:20:28;11.60;99.90
22319;DHT22;11327;52.334;9.506;2023-03-23T03:23:50;11.70;99.90
22319;DHT22;11327;52.334;9.506;2023-03-23T03:27:14;11.70;99.90
22319;DHT22;11327;52.334;9.506;2023-03-23T03:30:37;11.80;99.90
22319;DHT22;11327;52.334;9.506;2023-03-23T03:33:58;11.80;99.90
22319;DHT22;11327;52.334;9.506;2023-03-23T03:37:21;11.80;99.90
22319;DHT22;11327;52.334;9.506;2023-03-23T03:40:42;11.90;99.90
22319;DHT22;11327;52.334;9.506;2023-03-23T03:44:04;11.80;99.90
22319;DHT22;11327;52.334;9.506;2023-03-23T03:47:26;11.90;99.90
22319;DHT22;11327;52.334;9.506;2023-03-23T03:50:47;11.90;99.90
22319;DHT22;11327;52.334;9.506;2023-03-23T03:54:07;11.90;99.90
22319;DHT22;11327;52.334;9.506;2023-03-23T03:57:28;11.90;99.90
22319;DHT22;11327;52.334;9.506;2023-03-23T04:00:49;11.90;99.90
22319;DHT22;11327;52.334;9.506;2023-03-23T04:04:10;11.90;99.90
22319;DHT22;11327;52.334;9.506;2023-03-23T04:07:30;11.90;99.90
22319;DHT22;11327;52.334;9.506;2023-03-23T04:10:51;11.90;99.90
22319;DHT22;11327;52.334;9.506;2023-03-23T04:14:12;11.90;99.90
22319;DHT22;11327;52.334;9.506;2023-03-23T04:17:34;11.90;99.90
22319;DHT22;11327;52.334;9.506;2023-03-23T04:20:56;11.90;99.90
22319;DHT22;11327;52.334;9.506;2023-03-23T04:24:18;11.90;99.90
22319;DHT22;11327;52.334;9.506;2023-03-23T04:27:41;11.90;99.90
22319;DHT22;11327;52.334;9.506;2023-03-23T04:31:06;11.80;99.90
22319;DHT22;11327;52.334;9.506;2023-03-23T04:34:29;11.90;99.90
22319;DHT22;11327;52.334;9.506;2023-03-23T04:37:52;12.00;99.90
22319;DHT22;11327;52.334;9.506;2023-03-23T04:41:13;11.90;99.90
22319;DHT22;11327;52.334;9.506;2023-03-23T04:44:34;11.90;99.90
22319;DHT22;11327;52.334;9.506;2023-03-23T04:47:55;11.90;99.90
22319;DHT22;11327;52.334;9.506;2023-03-23T04:51:17;11.90;99.90
22319;DHT22;11327;52.334;9.506;2023-03-23T04:54:38;11.90;99.90
22319;DHT22;11327;52.334;9.506;2023-03-23T04:57:59;11.90;99.90
22319;DHT22;11327;52.334;9.506;2023-03-23T05:01:21;11.90;99.90
22319;DHT22;11327;52.334;9.506;2023-03-23T05:04:42;12.00;99.90
22319;DHT22;11327;52.334;9.506;2023-03-23T05:08:03;12.00;99.90
22319;DHT22;11327;52.334;9.506;2023-03-23T05:11:24;12.10;99.90
22319;DHT22;11327;52.334;9.506;2023-03-23T05:14:45;12.10;99.90
22319;DHT22;11327;52.334;9.506;2023-03-23T05:18:06;12.10;99.90
22319;DHT22;11327;52.334;9.506;2023-03-23T05:21:27;12.10;99.90
22319;DHT22;11327;52.334;9.506;2023-03-23T05:24:48;12.00;99.90
22319;DHT22;11327;52.334;9.506;2023-03-23T05:28:11;12.00;99.90
22319;DHT22;11327;52.334;9.506;2023-03-23T05:31:33;12.10;99.90
22319;DHT22;11327;52.334;9.506;2023-03-23T05:34:57;12.10;99.90
22319;DHT22;11327;52.334;9.506;2023-03-23T05:38:18;12.10;99.90
22319;DHT22;11327;52.334;9.506;2023-03-23T05:41:40;12.00;99.90
22319;DHT22;11327;52.334;9.506;2023-03-23T05:45:02;12.10;99.90
22319;DHT22;11327;52.334;9.506;2023-03-23T05:48:23;12.10;99.90
22319;DHT22;11327;52.334;9.506;2023-03-23T05:51:45;12.10;99.90
22319;DHT22;11327;52.334;9.506;2023-03-23T05:55:11;12.10;99.90
22319;DHT22;11327;52.334;9.506;2023-03-23T05:58:32;12.10;99.90
22319;DHT22;11327;52.334;9.506;2023-03-23T06:01:53;12.10;99.90
22319;DHT22;11327;52.334;9.506;2023-03-23T06:05:17;12.10;99.90
22319;DHT22;11327;52.334;9.506;2023-03-23T06:08:38;12.20;99.90
22319;DHT22;11327;52.334;9.506;2023-03-23T06:11:59;12.20;99.90
22319;DHT22;11327;52.334;9.506;2023-03-23T06:15:20;12.20;99.90
22319;DHT22;11327;52.334;9.506;2023-03-23T06:18:41;12.20;99.90
22319;DHT22;11327;52.334;9.506;2023-03-23T06:22:03;12.20;99.90
22319;DHT22;11327;52.334;9.506;2023-03-23T06:25:24;12.30;99.90
22319;DHT22;11327;52.334;9.506;2023-03-23T06:28:45;12.30;99.90
22319;DHT22;11327;52.334;9.506;2023-03-23T06:32:06;12.40;99.90
22319;DHT22;11327;52.334;9.506;2023-03-23T06:35:26;12.40;99.90
22319;DHT22;11327;52.334;9.506;2023-03-23T06:38:47;12.40;99.90
22319;DHT22;11327;52.334;9.506;2023-03-23T06:42:10;12.30;99.90
22319;DHT22;11327;52.334;9.506;2023-03-23T06:45:33;12.30;99.90
22319;DHT22;11327;52.334;9.506;2023-03-23T06:48:54;12.50;99.90
22319;DHT22;11327;52.334;9.506;2023-03-23T06:52:15;12.50;99.90
22319;DHT22;11327;52.334;9.506;2023-03-23T06:55:36;12.50;99.90
22319;DHT22;11327;52.334;9.506;2023-03-23T06:58:58;12.50;99.90
22319;DHT22;11327;52.334;9.506;2023-03-23T07:02:19;12.50;99.90
22319;DHT22;11327;52.334;9.506;2023-03-23T07:05:40;12.50;99.90
22319;DHT22;11327;52.334;9.506;2023-03-23T07:09:01;12.50;99.90
22319;DHT22;11327;52.334;9.506;2023-03-23T07:12:22;12.60;99.90
22319;DHT22;11327;52.334;9.506;2023-03-23T07:15:43;12.60;99.90
22319;DHT22;11327;52.334;9.506;2023-03-23T07:19:04;12.70;99.90
22319;DHT22;11327;52.334;9.506;2023-03-23T07:22:25;12.70;99.90
22319;DHT22;11327;52.334;9.506;2023-03-23T07:25:46;12.70;99.90
22319;DHT22;11327;52.334;9.506;2023-03-23T07:29:08;12.70;99.90
22319;DHT22;11327;52.334;9.506;2023-03-23T07:32:29;12.90;99.90
22319;DHT22;11327;52.334;9.506;2023-03-23T07:35:50;12.70;99.90
22319;DHT22;11327;52.334;9.506;2023-03-23T07:39:11;12.70;99.90
22319;DHT22;11327;52.334;9.506;2023-03-23T07:42:32;12.80;99.90
22319;DHT22;11327;52.334;9.506;2023-03-23T07:45:53;12.90;99.90
22319;DHT22;11327;52.334;9.506;2023-03-23T07:49:14;13.10;99.90
22319;DHT22;11327;52.334;9.506;2023-03-23T07:52:36;13.20;99.90
22319;DHT22;11327;52.334;9.506;2023-03-23T07:55:57;13.30;99.90
22319;DHT22;11327;52.334;9.506;2023-03-23T07:59:18;13.30;99.90
22319;DHT22;11327;52.334;9.506;2023-03-23T08:02:38;13.30;99.90
22319;DHT22;11327;52.334;9.506;2023-03-23T08:06:00;13.40;99.90
22319;DHT22;11327;52.334;9.506;2023-03-23T08:09:20;13.40;99.90
22319;DHT22;11327;52.334;9.506;2023-03-23T08:12:44;13.40;99.90
22319;DHT22;11327;52.334;9.506;2023-03-23T08:16:06;13.50;99.90
22319;DHT22;11327;52.334;9.506;2023-03-23T08:19:26;13.50;99.90
22319;DHT22;11327;52.334;9.506;2023-03-23T08:22:53;13.70;99.90
22319;DHT22;11327;52.334;9.506;2023-03-23T08:26:14;13.60;99.90
22319;DHT22;11327;52.334;9.506;2023-03-23T08:29:35;13.70;99.90
22319;DHT22;11327;52.334;9.506;2023-03-23T08:32:58;13.70;99.90
22319;DHT22;11327;52.334;9.506;2023-03-23T08:36:19;13.60;99.90
22319;DHT22;11327;52.334;9.506;2023-03-23T08:39:40;13.60;99.90
22319;DHT22;11327;52.334;9.506;2023-03-23T08:43:03;13.60;99.90
22319;DHT22;11327;52.334;9.506;2023-03-23T08:46:24;13.60;99.90
22319;DHT22;11327;52.334;9.506;2023-03-23T08:49:45;13.70;99.90
22319;DHT22;11327;52.334;9.506;2023-03-23T08:53:06;13.70;99.90
22319;DHT22;11327;52.334;9.506;2023-03-23T08:56:27;13.70;99.90
22319;DHT22;11327;52.334;9.506;2023-03-23T08:59:48;13.70;99.90
22319;DHT22;11327;52.334;9.506;2023-03-23T09:03:09;13.80;99.90
22319;DHT22;11327;52.334;9.506;2023-03-23T09:06:30;13.70;99.90
22319;DHT22;11327;52.334;9.506;2023-03-23T09:09:51;13.80;99.90
22319;DHT22;11327;52.334;9.506;2023-03-23T09:13:11;13.80;99.90
22319;DHT22;11327;52.334;9.506;2023-03-23T09:16:33;13.80;99.90
22319;DHT22;11327;52.334;9.506;2023-03-23T09:19:54;13.90;99.90
22319;DHT22;11327;52.334;9.506;2023-03-23T09:23:14;13.90;99.90
22319;DHT22;11327;52.334;9.506;2023-03-23T09:26:35;13.90;99.90
22319;DHT22;11327;52.334;9.506;2023-03-23T09:29:56;13.90;99.90
22319;DHT22;11327;52.334;9.506;2023-03-23T09:33:17;13.80;99.90
22319;DHT22;11327;52.334;9.506;2023-03-23T09:36:38;13.90;99.90
22319;DHT22;11327;52.334;9.506;2023-03-23T09:39:59;13.90;99.90
22319;DHT22;11327;52.334;9.506;2023-03-23T09:47:24;13.90;99.90
22319;DHT22;11327;52.334;9.506;2023-03-23T09:50:46;13.80;99.90
22319;DHT22;11327;52.334;9.506;2023-03-23T09:54:21;13.80;99.90
22319;DHT22;11327;52.334;9.506;2023-03-23T09:57:47;13.80;99.90
22319;DHT22;11327;52.334;9.506;2023-03-23T10:04:50;13.80;99.90
22319;DHT22;11327;52.334;9.506;2023-03-23T10:08:24;13.80;99.90
22319;DHT22;11327;52.334;9.506;2023-03-23T10:12:00;13.90;99.90
22319;DHT22;11327;52.334;9.506;2023-03-23T10:15:25;13.90;99.90
22319;DHT22;11327;52.334;9.506;2023-03-23T10:22:17;14.00;99.90
22319;DHT22;11327;52.334;9.506;2023-03-23T10:25:43;14.00;99.90
22319;DHT22;11327;52.334;9.506;2023-03-23T10:29:14;14.10;99.90
22319;DHT22;11327;52.334;9.506;2023-03-23T10:32:41;14.10;99.90
22319;DHT22;11327;52.334;9.506;2023-03-23T10:36:27;14.20;99.90
22319;DHT22;11327;52.334;9.506;2023-03-23T10:39:54;14.20;99.90
22319;DHT22;11327;52.334;9.506;2023-03-23T10:43:15;14.30;99.90
22319;DHT22;11327;52.334;9.506;2023-03-23T10:46:46;14.50;99.90
22319;DHT22;11327;52.334;9.506;2023-03-23T10:50:18;14.60;99.90
22319;DHT22;11327;52.334;9.506;2023-03-23T10:53:44;14.90;99.90
22319;DHT22;11327;52.334;9.506;2023-03-23T10:57:23;15.30;99.90
22319;DHT22;11327;52.334;9.506;2023-03-23T11:00:46;15.70;99.90
22319;DHT22;11327;52.334;9.506;2023-03-23T11:04:15;15.80;99.90
22319;DHT22;11327;52.334;9.506;2023-03-23T11:07:36;15.90;99.90
22319;DHT22;11327;52.334;9.506;2023-03-23T11:11:08;15.90;99.90
22319;DHT22;11327;52.334;9.506;2023-03-23T11:14:26;16.10;99.90
22319;DHT22;11327;52.334;9.506;2023-03-23T11:18:00;16.00;99.90
22319;DHT22;11327;52.334;9.506;2023-03-23T11:21:23;15.90;99.90
22319;DHT22;11327;52.334;9.506;2023-03-23T11:24:46;15.80;99.90
22319;DHT22;11327;52.334;9.506;2023-03-23T11:28:08;15.90;99.90
22319;DHT22;11327;52.334;9.506;2023-03-23T11:31:32;15.90;99.90
22319;DHT22;11327;52.334;9.506;2023-03-23T11:34:57;15.60;99.90
22319;DHT22;11327;52.334;9.506;2023-03-23T11:38:20;15.50;99.90
22319;DHT22;11327;52.334;9.506;2023-03-23T11:41:41;15.50;99.90
22319;DHT22;11327;52.334;9.506;2023-03-23T11:45:18;15.40;99.90
22319;DHT22;11327;52.334;9.506;2023-03-23T11:52:31;15.20;99.90
22319;DHT22;11327;52.334;9.506;2023-03-23T11:59:25;14.80;99.90
22319;DHT22;11327;52.334;9.506;2023-03-23T12:06:50;13.40;99.90
22319;DHT22;11327;52.334;9.506;2023-03-23T12:10:32;13.10;99.90
22319;DHT22;11327;52.334;9.506;2023-03-23T12:14:16;13.00;99.90
22319;DHT22;11327;52.334;9.506;2023-03-23T12:18:01;13.00;99.90
22319;DHT22;11327;52.334;9.506;2023-03-23T12:29:13;12.90;99.90
22319;DHT22;11327;52.334;9.506;2023-03-23T12:47:20;12.70;99.90
22319;DHT22;11327;52.334;9.506;2023-03-23T12:51:00;12.60;99.90
22319;DHT22;11327;52.334;9.506;2023-03-23T13:01:14;12.50;99.90
22319;DHT22;11327;52.334;9.506;2023-03-23T13:04:41;12.50;99.90
22319;DHT22;11327;52.334;9.506;2023-03-23T13:08:16;12.50;99.90
22319;DHT22;11327;52.334;9.506;2023-03-23T13:11:40;12.50;99.90
22319;DHT22;11327;52.334;9.506;2023-03-23T13:15:16;12.40;99.90
22319;DHT22;11327;52.334;9.506;2023-03-23T13:22:09;12.40;99.90
22319;DHT22;11327;52.334;9.506;2023-03-23T13:29:20;12.30;99.90
22319;DHT22;11327;52.334;9.506;2023-03-23T13:32:40;12.30;99.90
22319;DHT22;11327;52.334;9.506;2023-03-23T13:36:08;12.30;99.90
22319;DHT22;11327;52.334;9.506;2023-03-23T13:39:33;12.20;99.90
22319;DHT22;11327;52.334;9.506;2023-03-23T13:42:58;12.10;99.90
22319;DHT22;11327;52.334;9.506;2023-03-23T13:46:28;12.10;99.90
22319;DHT22;11327;52.334;9.506;2023-03-23T13:50:00;12.10;99.90
22319;DHT22;11327;52.334;9.506;2023-03-23T13:53:27;12.10;99.90
22319;DHT22;11327;52.334;9.506;2023-03-23T13:57:01;12.10;99.90
22319;DHT22;11327;52.334;9.506;2023-03-23T14:03:54;12.20;99.90
22319;DHT22;11327;52.334;9.506;2023-03-23T14:07:17;12.30;99.90
22319;DHT22;11327;52.334;9.506;2023-03-23T14:10:42;12.40;99.90
22319;DHT22;11327;52.334;9.506;2023-03-23T14:14:13;12.40;99.90
22319;DHT22;11327;52.334;9.506;2023-03-23T14:17:39;12.40;99.90
22319;DHT22;11327;52.334;9.506;2023-03-23T14:20:59;12.40;99.90
22319;DHT22;11327;52.334;9.506;2023-03-23T14:24:23;12.50;99.90
22319;DHT22;11327;52.334;9.506;2023-03-23T14:27:44;12.60;99.90
22319;DHT22;11327;52.334;9.506;2023-03-23T14:31:18;12.60;99.90
22319;DHT22;11327;52.334;9.506;2023-03-23T14:34:40;12.60;99.90
22319;DHT22;11327;52.334;9.506;2023-03-23T14:38:00;12.70;99.90
22319;DHT22;11327;52.334;9.506;2023-03-23T14:41:22;12.90;99.90
22319;DHT22;11327;52.334;9.506;2023-03-23T14:44:46;12.90;99.90
22319;DHT22;11327;52.334;9.506;2023-03-23T14:48:11;12.70;99.90
22319;DHT22;11327;52.334;9.506;2023-03-23T14:51:32;12.60;99.90
22319;DHT22;11327;52.334;9.506;2023-03-23T14:54:54;12.70;99.90
22319;DHT22;11327;52.334;9.506;2023-03-23T14:58:17;12.60;99.90
22319;DHT22;11327;52.334;9.506;2023-03-23T15:01:40;12.70;99.90
22319;DHT22;11327;52.334;9.506;2023-03-23T15:08:35;12.70;99.90
22319;DHT22;11327;52.334;9.506;2023-03-23T15:11:59;12.80;99.90
22319;DHT22;11327;52.334;9.506;2023-03-23T15:15:24;12.70;99.90
22319;DHT22;11327;52.334;9.506;2023-03-23T15:18:51;12.90;99.90
22319;DHT22;11327;52.334;9.506;2023-03-23T15:25:50;12.70;99.90
22319;DHT22;11327;52.334;9.506;2023-03-23T15:29:15;12.60;99.90
22319;DHT22;11327;52.334;9.506;2023-03-23T15:32:41;12.70;99.90
22319;DHT22;11327;52.334;9.506;2023-03-23T15:36:15;12.60;99.90
22319;DHT22;11327;52.334;9.506;2023-03-23T15:39:40;12.50;99.90
22319;DHT22;11327;52.334;9.506;2023-03-23T15:43:16;12.80;99.90
22319;DHT22;11327;52.334;9.506;2023-03-23T15:46:49;12.70;99.90
22319;DHT22;11327;52.334;9.506;2023-03-23T15:53:51;12.90;99.90
22319;DHT22;11327;52.334;9.506;2023-03-23T15:57:12;13.00;99.90
22319;DHT22;11327;52.334;9.506;2023-03-23T16:00:33;13.10;99.90
22319;DHT22;11327;52.334;9.506;2023-03-23T16:07:25;13.20;99.90
22319;DHT22;11327;52.334;9.506;2023-03-23T16:10:46;13.30;99.90
22319;DHT22;11327;52.334;9.506;2023-03-23T16:14:07;13.20;99.90
22319;DHT22;11327;52.334;9.506;2023-03-23T16:17:28;13.00;99.90
22319;DHT22;11327;52.334;9.506;2023-03-23T16:20:49;13.00;99.90
22319;DHT22;11327;52.334;9.506;2023-03-23T16:24:10;12.90;99.90
22319;DHT22;11327;52.334;9.506;2023-03-23T16:27:31;12.90;99.90
22319;DHT22;11327;52.334;9.506;2023-03-23T16:30:51;12.90;99.90
22319;DHT22;11327;52.334;9.506;2023-03-23T16:34:12;12.80;99.90
22319;DHT22;11327;52.334;9.506;2023-03-23T16:37:33;12.90;99.90
22319;DHT22;11327;52.334;9.506;2023-03-23T16:40:54;12.90;99.90
22319;DHT22;11327;52.334;9.506;2023-03-23T16:44:15;12.90;99.90
22319;DHT22;11327;52.334;9.506;2023-03-23T16:47:36;12.80;99.90
22319;DHT22;11327;52.334;9.506;2023-03-23T16:50:57;12.90;99.90
22319;DHT22;11327;52.334;9.506;2023-03-23T16:54:17;12.90;99.90
22319;DHT22;11327;52.334;9.506;2023-03-23T16:57:39;12.80;99.90
22319;DHT22;11327;52.334;9.506;2023-03-23T17:01:00;12.80;99.90
22319;DHT22;11327;52.334;9.506;2023-03-23T17:04:20;12.70;99.90
22319;DHT22;11327;52.334;9.506;2023-03-23T17:07:41;12.70;99.90
22319;DHT22;11327;52.334;9.506;2023-03-23T17:11:02;12.60;99.90
22319;DHT22;11327;52.334;9.506;2023-03-23T17:14:23;12.60;99.90
22319;DHT22;11327;52.334;9.506;2023-03-23T17:17:43;12.60;99.90
22319;DHT22;11327;52.334;9.506;2023-03-23T17:21:05;12.50;99.90
22319;DHT22;11327;52.334;9.506;2023-03-23T17:24:26;12.50;99.90
22319;DHT22;11327;52.334;9.506;2023-03-23T17:27:47;12.50;99.90
22319;DHT22;11327;52.334;9.506;2023-03-23T17:31:07;12.50;99.90
22319;DHT22;11327;52.334;9.506;2023-03-23T17:34:28;12.50;99.90
22319;DHT22;11327;52.334;9.506;2023-03-23T17:37:49;12.40;99.90
22319;DHT22;11327;52.334;9.506;2023-03-23T17:41:10;12.40;99.90
22319;DHT22;11327;52.334;9.506;2023-03-23T17:44:30;12.40;99.90
22319;DHT22;11327;52.334;9.506;2023-03-23T17:47:53;12.30;99.90
22319;DHT22;11327;52.334;9.506;2023-03-23T17:51:14;12.30;99.90
22319;DHT22;11327;52.334;9.506;2023-03-23T17:54:35;12.30;99.90
22319;DHT22;11327;52.334;9.506;2023-03-23T17:57:55;12.30;99.90
22319;DHT22;11327;52.334;9.506;2023-03-23T18:01:16;12.20;99.90
22319;DHT22;11327;52.334;9.506;2023-03-23T18:04:37;12.20;99.90
22319;DHT22;11327;52.334;9.506;2023-03-23T18:07:58;12.20;99.90
22319;DHT22;11327;52.334;9.506;2023-03-23T18:11:18;12.20;99.90
22319;DHT22;11327;52.334;9.506;2023-03-23T18:14:39;12.10;99.90
22319;DHT22;11327;52.334;9.506;2023-03-23T18:18:00;12.10;99.90
22319;DHT22;11327;52.334;9.506;2023-03-23T18:21:22;12.10;99.90
22319;DHT22;11327;52.334;9.506;2023-03-23T18:24:43;12.10;99.90
22319;DHT22;11327;52.334;9.506;2023-03-23T18:28:05;12.00;99.90
22319;DHT22;11327;52.334;9.506;2023-03-23T18:31:26;12.00;99.90
22319;DHT22;11327;52.334;9.506;2023-03-23T18:34:48;12.10;99.90
22319;DHT22;11327;52.334;9.506;2023-03-23T18:38:10;12.00;99.90
22319;DHT22;11327;52.334;9.506;2023-03-23T18:41:31;12.00;99.90
22319;DHT22;11327;52.334;9.506;2023-03-23T18:44:55;12.00;99.90
22319;DHT22;11327;52.334;9.506;2023-03-23T18:48:19;12.10;99.90
22319;DHT22;11327;52.334;9.506;2023-03-23T18:51:40;12.10;99.90
22319;DHT22;11327;52.334;9.506;2023-03-23T18:55:01;12.10;99.90
22319;DHT22;11327;52.334;9.506;2023-03-23T18:58:21;12.10;99.90
22319;DHT22;11327;52.334;9.506;2023-03-23T19:01:42;12.20;99.90
22319;DHT22;11327;52.334;9.506;2023-03-23T19:05:04;12.20;99.90
22319;DHT22;11327;52.334;9.506;2023-03-23T19:08:26;12.20;99.90
22319;DHT22;11327;52.334;9.506;2023-03-23T19:11:47;12.30;99.90
22319;DHT22;11327;52.334;9.506;2023-03-23T19:15:08;12.30;99.90
22319;DHT22;11327;52.334;9.506;2023-03-23T19:18:29;12.30;99.90
22319;DHT22;11327;52.334;9.506;2023-03-23T19:21:49;12.30;99.90
22319;DHT22;11327;52.334;9.506;2023-03-23T19:25:10;12.30;99.90
22319;DHT22;11327;52.334;9.506;2023-03-23T19:28:31;12.30;99.90
22319;DHT22;11327;52.334;9.506;2023-03-23T19:31:52;12.30;99.90
22319;DHT22;11327;52.334;9.506;2023-03-23T19:35:13;12.40;99.90
22319;DHT22;11327;52.334;9.506;2023-03-23T19:38:34;12.40;99.90
22319;DHT22;11327;52.334;9.506;2023-03-23T19:41:55;12.40;99.90
22319;DHT22;11327;52.334;9.506;2023-03-23T19:45:16;12.40;99.90
22319;DHT22;11327;52.334;9.506;2023-03-23T19:48:37;12.40;99.90
22319;DHT22;11327;52.334;9.506;2023-03-23T19:51:57;12.30;99.90
22319;DHT22;11327;52.334;9.506;2023-03-23T19:55:18;12.20;99.90
22319;DHT22;11327;52.334;9.506;2023-03-23T19:58:39;12.10;99.90
22319;DHT22;11327;52.334;9.506;2023-03-23T20:02:00;12.10;99.90
22319;DHT22;11327;52.334;9.506;2023-03-23T20:05:20;12.00;99.90
22319;DHT22;11327;52.334;9.506;2023-03-23T20:08:44;11.90;99.90
22319;DHT22;11327;52.334;9.506;2023-03-23T20:12:07;11.80;99.90
22319;DHT22;11327;52.334;9.506;2023-03-23T20:15:29;11.80;99.90
22319;DHT22;11327;52.334;9.506;2023-03-23T20:18:51;11.70;99.90
22319;DHT22;11327;52.334;9.506;2023-03-23T20:22:11;11.60;99.90
22319;DHT22;11327;52.334;9.506;2023-03-23T20:25:33;11.50;99.90
22319;DHT22;11327;52.334;9.506;2023-03-23T20:28:54;11.40;99.90
22319;DHT22;11327;52.334;9.506;2023-03-23T20:32:15;11.30;99.90
22319;DHT22;11327;52.334;9.506;2023-03-23T20:35:36;11.30;99.90
22319;DHT22;11327;52.334;9.506;2023-03-23T20:38:57;11.20;99.90
22319;DHT22;11327;52.334;9.506;2023-03-23T20:42:18;11.20;99.90
22319;DHT22;11327;52.334;9.506;2023-03-23T20:45:39;11.10;99.90
22319;DHT22;11327;52.334;9.506;2023-03-23T20:49:00;11.00;99.90
22319;DHT22;11327;52.334;9.506;2023-03-23T20:52:22;11.00;99.90
22319;DHT22;11327;52.334;9.506;2023-03-23T20:55:45;11.00;99.90
22319;DHT22;11327;52.334;9.506;2023-03-23T20:59:05;10.90;99.90
22319;DHT22;11327;52.334;9.506;2023-03-23T21:02:26;10.90;99.90
22319;DHT22;11327;52.334;9.506;2023-03-23T21:05:49;11.00;99.90
22319;DHT22;11327;52.334;9.506;2023-03-23T21:09:11;11.00;99.90
22319;DHT22;11327;52.334;9.506;2023-03-23T21:12:32;11.00;99.90
22319;DHT22;11327;52.334;9.506;2023-03-23T21:15:52;11.00;99.90
22319;DHT22;11327;52.334;9.506;2023-03-23T21:19:13;10.90;99.90
22319;DHT22;11327;52.334;9.506;2023-03-23T21:22:34;10.80;99.90
22319;DHT22;11327;52.334;9.506;2023-03-23T21:26:04;10.80;99.90
22319;DHT22;11327;52.334;9.506;2023-03-23T21:29:22;10.80;99.90
22319;DHT22;11327;52.334;9.506;2023-03-23T21:32:43;10.80;99.90
22319;DHT22;11327;52.334;9.506;2023-03-23T21:36:04;10.80;99.90
22319;DHT22;11327;52.334;9.506;2023-03-23T21:39:25;10.80;99.90
22319;DHT22;11327;52.334;9.506;2023-03-23T21:42:47;10.80;99.90
22319;DHT22;11327;52.334;9.506;2023-03-23T21:46:08;10.80;99.90
22319;DHT22;11327;52.334;9.506;2023-03-23T21:49:32;10.80;99.90
22319;DHT22;11327;52.334;9.506;2023-03-23T21:52:53;10.70;99.90
22319;DHT22;11327;52.334;9.506;2023-03-23T21:56:14;10.80;99.90
22319;DHT22;11327;52.334;9.506;2023-03-23T21:59:35;10.70;99.90
22319;DHT22;11327;52.334;9.506;2023-03-23T22:02:55;10.70;99.90
22319;DHT22;11327;52.334;9.506;2023-03-23T22:06:19;10.70;99.90
22319;DHT22;11327;52.334;9.506;2023-03-23T22:09:42;10.70;99.90
22319;DHT22;11327;52.334;9.506;2023-03-23T22:13:04;10.70;99.90
22319;DHT22;11327;52.334;9.506;2023-03-23T22:16:26;10.70;99.90
22319;DHT22;11327;52.334;9.506;2023-03-23T22:19:48;10.70;99.90
22319;DHT22;11327;52.334;9.506;2023-03-23T22:23:09;10.70;99.90
22319;DHT22;11327;52.334;9.506;2023-03-23T22:26:30;10.70;99.90
22319;DHT22;11327;52.334;9.506;2023-03-23T22:29:51;10.70;99.90
22319;DHT22;11327;52.334;9.506;2023-03-23T22:33:12;10.70;99.90
22319;DHT22;11327;52.334;9.506;2023-03-23T22:36:32;10.70;99.90
22319;DHT22;11327;52.334;9.506;2023-03-23T22:39:53;10.70;99.90
22319;DHT22;11327;52.334;9.506;2023-03-23T22:43:14;10.70;99.90
22319;DHT22;11327;52.334;9.506;2023-03-23T22:46:34;10.70;99.90
22319;DHT22;11327;52.334;9.506;2023-03-23T22:49:55;10.70;99.90
22319;DHT22;11327;52.334;9.506;2023-03-23T22:53:17;10.80;99.90
22319;DHT22;11327;52.334;9.506;2023-03-23T22:56:38;10.80;99.90
22319;DHT22;11327;52.334;9.506;2023-03-23T22:59:59;10.80;99.90